sensor_id;sensor_type;location;lat;lon;timestamp;P1;durP1;ratioP1;P2;durP2;ratioP2
21402;SDS011;10862;51.886;17.078;2023-03-17T00:00:34;68.33;;;36.37;;
21402;SDS011;10862;51.886;17.078;2023-03-17T00:03:00;79.33;;;39.00;;
21402;SDS011;10862;51.886;17.078;2023-03-17T00:05:31;88.33;;;36.83;;
21402;SDS011;10862;51.886;17.078;2023-03-17T00:08:22;79.63;;;38.00;;
21402;SDS011;10862;51.886;17.078;2023-03-17T00:10:50;66.53;;;31.40;;
21402;SDS011;10862;51.886;17.078;2023-03-17T00:13:17;74.20;;;36.00;;
21402;SDS011;10862;51.886;17.078;2023-03-17T00:15:50;65.73;;;33.87;;
21402;SDS011;10862;51.886;17.078;2023-03-17T00:18:19;42.07;;;24.90;;
21402;SDS011;10862;51.886;17.078;2023-03-17T00:20:46;66.13;;;32.57;;
21402;SDS011;10862;51.886;17.078;2023-03-17T00:23:14;55.47;;;29.70;;
21402;SDS011;10862;51.886;17.078;2023-03-17T00:25:44;52.93;;;31.80;;
21402;SDS011;10862;51.886;17.078;2023-03-17T00:30:40;50.57;;;31.37;;
21402;SDS011;10862;51.886;17.078;2023-03-17T00:33:08;58.77;;;30.00;;
21402;SDS011;10862;51.886;17.078;2023-03-17T00:35:35;43.40;;;26.50;;
21402;SDS011;10862;51.886;17.078;2023-03-17T00:38:01;57.33;;;32.10;;
21402;SDS011;10862;51.886;17.078;2023-03-17T00:40:27;53.30;;;28.77;;
21402;SDS011;10862;51.886;17.078;2023-03-17T00:42:55;51.13;;;29.50;;
21402;SDS011;10862;51.886;17.078;2023-03-17T00:45:21;57.83;;;30.63;;
21402;SDS011;10862;51.886;17.078;2023-03-17T00:47:49;47.40;;;27.73;;
21402;SDS011;10862;51.886;17.078;2023-03-17T00:50:20;52.37;;;29.73;;
21402;SDS011;10862;51.886;17.078;2023-03-17T00:52:48;51.27;;;29.57;;
21402;SDS011;10862;51.886;17.078;2023-03-17T00:55:16;56.30;;;32.50;;
21402;SDS011;10862;51.886;17.078;2023-03-17T00:57:43;48.87;;;28.77;;
21402;SDS011;10862;51.886;17.078;2023-03-17T01:00:29;50.37;;;29.50;;
21402;SDS011;10862;51.886;17.078;2023-03-17T01:02:55;52.77;;;29.40;;
21402;SDS011;10862;51.886;17.078;2023-03-17T01:05:22;53.33;;;31.17;;
21402;SDS011;10862;51.886;17.078;2023-03-17T01:07:50;45.30;;;25.73;;
21402;SDS011;10862;51.886;17.078;2023-03-17T01:10:20;48.23;;;30.07;;
21402;SDS011;10862;51.886;17.078;2023-03-17T01:12:48;44.57;;;27.40;;
21402;SDS011;10862;51.886;17.078;2023-03-17T01:15:14;42.03;;;30.07;;
21402;SDS011;10862;51.886;17.078;2023-03-17T01:17:41;45.17;;;26.77;;
21402;SDS011;10862;51.886;17.078;2023-03-17T01:20:09;33.20;;;27.47;;
21402;SDS011;10862;51.886;17.078;2023-03-17T01:22:41;41.83;;;29.40;;
21402;SDS011;10862;51.886;17.078;2023-03-17T01:25:07;47.10;;;31.10;;
21402;SDS011;10862;51.886;17.078;2023-03-17T01:27:35;53.43;;;31.37;;
21402;SDS011;10862;51.886;17.078;2023-03-17T01:30:05;48.50;;;31.63;;
21402;SDS011;10862;51.886;17.078;2023-03-17T01:32:33;39.93;;;27.07;;
21402;SDS011;10862;51.886;17.078;2023-03-17T01:34:59;42.23;;;29.40;;
21402;SDS011;10862;51.886;17.078;2023-03-17T01:37:24;40.43;;;28.43;;
21402;SDS011;10862;51.886;17.078;2023-03-17T01:39:51;41.20;;;28.53;;
21402;SDS011;10862;51.886;17.078;2023-03-17T01:42:16;43.80;;;28.43;;
21402;SDS011;10862;51.886;17.078;2023-03-17T01:44:55;49.43;;;31.30;;
21402;SDS011;10862;51.886;17.078;2023-03-17T01:47:25;43.33;;;29.40;;
21402;SDS011;10862;51.886;17.078;2023-03-17T01:49:54;51.00;;;23.17;;
21402;SDS011;10862;51.886;17.078;2023-03-17T01:52:21;52.47;;;25.10;;
21402;SDS011;10862;51.886;17.078;2023-03-17T01:54:57;45.00;;;24.07;;
21402;SDS011;10862;51.886;17.078;2023-03-17T01:57:31;40.33;;;21.83;;
21402;SDS011;10862;51.886;17.078;2023-03-17T02:00:16;40.60;;;23.40;;
21402;SDS011;10862;51.886;17.078;2023-03-17T02:02:48;46.57;;;24.07;;
21402;SDS011;10862;51.886;17.078;2023-03-17T02:05:17;32.10;;;21.03;;
21402;SDS011;10862;51.886;17.078;2023-03-17T02:07:45;33.43;;;22.00;;
21402;SDS011;10862;51.886;17.078;2023-03-17T02:10:12;36.23;;;21.63;;
21402;SDS011;10862;51.886;17.078;2023-03-17T02:12:40;28.80;;;17.90;;
21402;SDS011;10862;51.886;17.078;2023-03-17T02:15:08;36.23;;;18.60;;
21402;SDS011;10862;51.886;17.078;2023-03-17T02:17:35;36.77;;;21.77;;
21402;SDS011;10862;51.886;17.078;2023-03-17T02:22:37;41.47;;;24.07;;
21402;SDS011;10862;51.886;17.078;2023-03-17T02:25:03;42.83;;;26.20;;
21402;SDS011;10862;51.886;17.078;2023-03-17T02:27:33;28.83;;;22.37;;
21402;SDS011;10862;51.886;17.078;2023-03-17T02:30:02;46.00;;;25.00;;
21402;SDS011;10862;51.886;17.078;2023-03-17T02:32:33;46.90;;;27.97;;
21402;SDS011;10862;51.886;17.078;2023-03-17T02:35:02;35.50;;;25.10;;
21402;SDS011;10862;51.886;17.078;2023-03-17T02:37:29;36.27;;;26.03;;
21402;SDS011;10862;51.886;17.078;2023-03-17T02:39:56;44.60;;;27.27;;
21402;SDS011;10862;51.886;17.078;2023-03-17T02:42:23;44.37;;;26.73;;
21402;SDS011;10862;51.886;17.078;2023-03-17T02:44:48;37.13;;;23.80;;
21402;SDS011;10862;51.886;17.078;2023-03-17T02:47:14;38.60;;;21.70;;
21402;SDS011;10862;51.886;17.078;2023-03-17T02:49:40;37.60;;;22.23;;
21402;SDS011;10862;51.886;17.078;2023-03-17T02:52:07;29.77;;;21.93;;
21402;SDS011;10862;51.886;17.078;2023-03-17T02:54:33;42.73;;;26.90;;
21402;SDS011;10862;51.886;17.078;2023-03-17T02:56:59;40.03;;;24.63;;
21402;SDS011;10862;51.886;17.078;2023-03-17T02:59:25;39.80;;;25.17;;
21402;SDS011;10862;51.886;17.078;2023-03-17T03:01:51;42.40;;;27.27;;
21402;SDS011;10862;51.886;17.078;2023-03-17T03:04:17;44.33;;;31.63;;
21402;SDS011;10862;51.886;17.078;2023-03-17T03:06:44;31.47;;;17.87;;
21402;SDS011;10862;51.886;17.078;2023-03-17T03:09:11;34.40;;;19.73;;
21402;SDS011;10862;51.886;17.078;2023-03-17T03:11:38;27.57;;;19.10;;
21402;SDS011;10862;51.886;17.078;2023-03-17T03:14:04;35.03;;;20.57;;
21402;SDS011;10862;51.886;17.078;2023-03-17T03:16:31;35.47;;;21.03;;
21402;SDS011;10862;51.886;17.078;2023-03-17T03:18:57;37.17;;;19.83;;
21402;SDS011;10862;51.886;17.078;2023-03-17T03:21:22;39.10;;;21.97;;
21402;SDS011;10862;51.886;17.078;2023-03-17T03:23:48;30.83;;;18.33;;
21402;SDS011;10862;51.886;17.078;2023-03-17T03:26:14;32.03;;;18.17;;
21402;SDS011;10862;51.886;17.078;2023-03-17T03:28:40;26.13;;;17.57;;
21402;SDS011;10862;51.886;17.078;2023-03-17T03:31:06;21.40;;;14.27;;
21402;SDS011;10862;51.886;17.078;2023-03-17T03:33:32;32.17;;;16.43;;
21402;SDS011;10862;51.886;17.078;2023-03-17T03:35:58;30.30;;;16.33;;
21402;SDS011;10862;51.886;17.078;2023-03-17T03:38:24;29.07;;;16.17;;
21402;SDS011;10862;51.886;17.078;2023-03-17T03:40:50;23.93;;;14.80;;
21402;SDS011;10862;51.886;17.078;2023-03-17T03:43:16;27.20;;;24.07;;
21402;SDS011;10862;51.886;17.078;2023-03-17T03:45:42;28.50;;;21.33;;
21402;SDS011;10862;51.886;17.078;2023-03-17T03:48:08;36.40;;;22.77;;
21402;SDS011;10862;51.886;17.078;2023-03-17T03:50:34;26.97;;;21.83;;
21402;SDS011;10862;51.886;17.078;2023-03-17T03:53:00;32.63;;;23.17;;
21402;SDS011;10862;51.886;17.078;2023-03-17T03:55:26;38.60;;;24.27;;
21402;SDS011;10862;51.886;17.078;2023-03-17T03:57:51;31.07;;;25.50;;
21402;SDS011;10862;51.886;17.078;2023-03-17T04:00:17;24.13;;;15.03;;
21402;SDS011;10862;51.886;17.078;2023-03-17T04:02:43;20.50;;;17.20;;
21402;SDS011;10862;51.886;17.078;2023-03-17T04:05:11;22.07;;;16.40;;
21402;SDS011;10862;51.886;17.078;2023-03-17T04:07:41;20.43;;;17.80;;
21402;SDS011;10862;51.886;17.078;2023-03-17T04:10:08;42.47;;;28.03;;
21402;SDS011;10862;51.886;17.078;2023-03-17T04:12:37;32.20;;;26.50;;
21402;SDS011;10862;51.886;17.078;2023-03-17T04:15:04;37.67;;;27.40;;
21402;SDS011;10862;51.886;17.078;2023-03-17T04:17:31;50.13;;;29.27;;
21402;SDS011;10862;51.886;17.078;2023-03-17T04:19:57;47.67;;;29.80;;
21402;SDS011;10862;51.886;17.078;2023-03-17T04:22:23;48.47;;;27.07;;
21402;SDS011;10862;51.886;17.078;2023-03-17T04:24:49;270.00;;;110.47;;
21402;SDS011;10862;51.886;17.078;2023-03-17T04:27:15;108.17;;;48.20;;
21402;SDS011;10862;51.886;17.078;2023-03-17T04:29:41;81.03;;;40.10;;
21402;SDS011;10862;51.886;17.078;2023-03-17T04:32:08;84.87;;;31.33;;
21402;SDS011;10862;51.886;17.078;2023-03-17T04:34:37;66.67;;;23.27;;
21402;SDS011;10862;51.886;17.078;2023-03-17T04:37:04;45.97;;;21.13;;
21402;SDS011;10862;51.886;17.078;2023-03-17T04:39:30;28.33;;;17.87;;
21402;SDS011;10862;51.886;17.078;2023-03-17T04:41:55;26.77;;;16.37;;
21402;SDS011;10862;51.886;17.078;2023-03-17T04:44:21;26.53;;;15.30;;
21402;SDS011;10862;51.886;17.078;2023-03-17T04:46:47;30.57;;;15.20;;
21402;SDS011;10862;51.886;17.078;2023-03-17T04:49:13;17.57;;;13.70;;
21402;SDS011;10862;51.886;17.078;2023-03-17T04:51:38;26.63;;;16.53;;
21402;SDS011;10862;51.886;17.078;2023-03-17T04:54:05;29.57;;;17.87;;
21402;SDS011;10862;51.886;17.078;2023-03-17T04:56:31;29.03;;;18.27;;
21402;SDS011;10862;51.886;17.078;2023-03-17T04:58:56;27.40;;;18.30;;
21402;SDS011;10862;51.886;17.078;2023-03-17T05:01:23;31.83;;;20.67;;
21402;SDS011;10862;51.886;17.078;2023-03-17T05:03:49;36.33;;;21.80;;
21402;SDS011;10862;51.886;17.078;2023-03-17T05:06:15;40.70;;;22.30;;
21402;SDS011;10862;51.886;17.078;2023-03-17T05:08:41;65.87;;;31.50;;
21402;SDS011;10862;51.886;17.078;2023-03-17T05:11:09;43.67;;;21.90;;
21402;SDS011;10862;51.886;17.078;2023-03-17T05:13:35;37.53;;;25.43;;
21402;SDS011;10862;51.886;17.078;2023-03-17T05:16:01;42.50;;;26.58;;
21402;SDS011;10862;51.886;17.078;2023-03-17T05:18:27;32.23;;;21.93;;
21402;SDS011;10862;51.886;17.078;2023-03-17T05:20:53;35.17;;;21.30;;
21402;SDS011;10862;51.886;17.078;2023-03-17T05:23:20;30.07;;;19.77;;
21402;SDS011;10862;51.886;17.078;2023-03-17T05:25:46;29.33;;;22.67;;
21402;SDS011;10862;51.886;17.078;2023-03-17T05:28:12;29.90;;;19.47;;
21402;SDS011;10862;51.886;17.078;2023-03-17T05:30:38;26.37;;;20.60;;
21402;SDS011;10862;51.886;17.078;2023-03-17T05:33:04;26.97;;;21.53;;
21402;SDS011;10862;51.886;17.078;2023-03-17T05:35:30;27.30;;;21.30;;
21402;SDS011;10862;51.886;17.078;2023-03-17T05:37:56;28.63;;;22.00;;
21402;SDS011;10862;51.886;17.078;2023-03-17T05:40:22;37.70;;;24.03;;
21402;SDS011;10862;51.886;17.078;2023-03-17T05:42:49;36.07;;;22.83;;
21402;SDS011;10862;51.886;17.078;2023-03-17T05:45:15;25.10;;;19.87;;
21402;SDS011;10862;51.886;17.078;2023-03-17T05:47:41;30.17;;;21.23;;
21402;SDS011;10862;51.886;17.078;2023-03-17T05:50:08;26.67;;;20.27;;
21402;SDS011;10862;51.886;17.078;2023-03-17T05:52:35;21.87;;;18.80;;
21402;SDS011;10862;51.886;17.078;2023-03-17T05:55:02;37.70;;;23.83;;
21402;SDS011;10862;51.886;17.078;2023-03-17T05:57:28;37.17;;;19.67;;
21402;SDS011;10862;51.886;17.078;2023-03-17T05:59:54;27.87;;;24.70;;
21402;SDS011;10862;51.886;17.078;2023-03-17T06:02:20;33.30;;;27.27;;
21402;SDS011;10862;51.886;17.078;2023-03-17T06:04:45;29.43;;;24.90;;
21402;SDS011;10862;51.886;17.078;2023-03-17T06:07:11;31.30;;;24.80;;
21402;SDS011;10862;51.886;17.078;2023-03-17T06:09:37;31.50;;;25.40;;
21402;SDS011;10862;51.886;17.078;2023-03-17T06:12:04;30.10;;;23.40;;
21402;SDS011;10862;51.886;17.078;2023-03-17T06:14:30;24.73;;;21.83;;
21402;SDS011;10862;51.886;17.078;2023-03-17T06:16:56;35.70;;;25.37;;
21402;SDS011;10862;51.886;17.078;2023-03-17T06:19:22;57.93;;;32.07;;
21402;SDS011;10862;51.886;17.078;2023-03-17T06:21:48;21.20;;;19.57;;
21402;SDS011;10862;51.886;17.078;2023-03-17T06:24:13;24.90;;;22.20;;
21402;SDS011;10862;51.886;17.078;2023-03-17T06:26:39;24.83;;;21.87;;
21402;SDS011;10862;51.886;17.078;2023-03-17T06:29:06;25.07;;;21.97;;
21402;SDS011;10862;51.886;17.078;2023-03-17T06:31:36;32.57;;;25.63;;
21402;SDS011;10862;51.886;17.078;2023-03-17T06:34:03;26.87;;;23.60;;
21402;SDS011;10862;51.886;17.078;2023-03-17T06:36:29;29.13;;;23.67;;
21402;SDS011;10862;51.886;17.078;2023-03-17T06:38:56;39.83;;;26.77;;
21402;SDS011;10862;51.886;17.078;2023-03-17T06:41:23;36.20;;;26.77;;
21402;SDS011;10862;51.886;17.078;2023-03-17T06:43:49;30.53;;;24.30;;
21402;SDS011;10862;51.886;17.078;2023-03-17T06:46:15;20.13;;;18.63;;
21402;SDS011;10862;51.886;17.078;2023-03-17T06:48:41;23.60;;;21.27;;
21402;SDS011;10862;51.886;17.078;2023-03-17T06:51:07;25.47;;;22.80;;
21402;SDS011;10862;51.886;17.078;2023-03-17T06:53:33;22.73;;;20.87;;
21402;SDS011;10862;51.886;17.078;2023-03-17T06:56:00;25.60;;;23.03;;
21402;SDS011;10862;51.886;17.078;2023-03-17T06:58:26;29.87;;;24.10;;
21402;SDS011;10862;51.886;17.078;2023-03-17T07:00:51;25.93;;;23.47;;
21402;SDS011;10862;51.886;17.078;2023-03-17T07:03:18;30.53;;;25.63;;
21402;SDS011;10862;51.886;17.078;2023-03-17T07:05:44;35.27;;;27.20;;
21402;SDS011;10862;51.886;17.078;2023-03-17T07:08:10;33.20;;;27.43;;
21402;SDS011;10862;51.886;17.078;2023-03-17T07:10:36;30.63;;;24.40;;
21402;SDS011;10862;51.886;17.078;2023-03-17T07:13:03;32.23;;;24.40;;
21402;SDS011;10862;51.886;17.078;2023-03-17T07:15:31;26.77;;;23.13;;
21402;SDS011;10862;51.886;17.078;2023-03-17T07:17:59;34.67;;;26.70;;
21402;SDS011;10862;51.886;17.078;2023-03-17T07:20:25;31.33;;;26.60;;
21402;SDS011;10862;51.886;17.078;2023-03-17T07:22:51;29.57;;;24.23;;
21402;SDS011;10862;51.886;17.078;2023-03-17T07:25:16;39.73;;;26.57;;
21402;SDS011;10862;51.886;17.078;2023-03-17T07:27:42;32.17;;;25.93;;
21402;SDS011;10862;51.886;17.078;2023-03-17T07:30:08;26.60;;;23.83;;
21402;SDS011;10862;51.886;17.078;2023-03-17T07:32:35;26.13;;;23.53;;
21402;SDS011;10862;51.886;17.078;2023-03-17T07:35:01;23.87;;;21.87;;
21402;SDS011;10862;51.886;17.078;2023-03-17T07:37:28;26.30;;;23.43;;
21402;SDS011;10862;51.886;17.078;2023-03-17T07:39:54;24.87;;;22.33;;
21402;SDS011;10862;51.886;17.078;2023-03-17T07:42:20;22.63;;;20.57;;
21402;SDS011;10862;51.886;17.078;2023-03-17T07:44:46;22.30;;;19.97;;
21402;SDS011;10862;51.886;17.078;2023-03-17T07:47:12;26.60;;;21.00;;
21402;SDS011;10862;51.886;17.078;2023-03-17T07:49:39;23.80;;;21.43;;
21402;SDS011;10862;51.886;17.078;2023-03-17T07:52:05;22.33;;;20.37;;
21402;SDS011;10862;51.886;17.078;2023-03-17T07:54:32;26.73;;;21.87;;
21402;SDS011;10862;51.886;17.078;2023-03-17T07:56:58;36.00;;;25.63;;
21402;SDS011;10862;51.886;17.078;2023-03-17T07:59:24;22.40;;;20.37;;
21402;SDS011;10862;51.886;17.078;2023-03-17T08:01:50;28.37;;;23.47;;
21402;SDS011;10862;51.886;17.078;2023-03-17T08:04:17;32.93;;;23.83;;
21402;SDS011;10862;51.886;17.078;2023-03-17T08:06:43;25.10;;;22.23;;
21402;SDS011;10862;51.886;17.078;2023-03-17T08:09:11;25.30;;;22.53;;
21402;SDS011;10862;51.886;17.078;2023-03-17T08:11:37;22.50;;;20.43;;
21402;SDS011;10862;51.886;17.078;2023-03-17T08:14:03;23.07;;;19.50;;
21402;SDS011;10862;51.886;17.078;2023-03-17T08:16:29;34.23;;;25.27;;
21402;SDS011;10862;51.886;17.078;2023-03-17T08:18:56;25.10;;;22.60;;
21402;SDS011;10862;51.886;17.078;2023-03-17T08:21:25;24.13;;;21.63;;
21402;SDS011;10862;51.886;17.078;2023-03-17T08:23:52;25.57;;;22.63;;
21402;SDS011;10862;51.886;17.078;2023-03-17T08:26:18;22.53;;;20.27;;
21402;SDS011;10862;51.886;17.078;2023-03-17T08:28:44;22.73;;;20.33;;
21402;SDS011;10862;51.886;17.078;2023-03-17T08:31:12;20.47;;;18.50;;
21402;SDS011;10862;51.886;17.078;2023-03-17T08:33:41;21.83;;;19.67;;
21402;SDS011;10862;51.886;17.078;2023-03-17T08:36:09;27.87;;;25.07;;
21402;SDS011;10862;51.886;17.078;2023-03-17T08:38:37;26.17;;;21.07;;
21402;SDS011;10862;51.886;17.078;2023-03-17T08:41:05;22.90;;;20.80;;
21402;SDS011;10862;51.886;17.078;2023-03-17T08:43:33;25.23;;;22.43;;
21402;SDS011;10862;51.886;17.078;2023-03-17T08:46:02;23.00;;;21.00;;
21402;SDS011;10862;51.886;17.078;2023-03-17T08:48:37;26.20;;;22.07;;
21402;SDS011;10862;51.886;17.078;2023-03-17T08:51:04;21.73;;;19.57;;
21402;SDS011;10862;51.886;17.078;2023-03-17T08:53:31;37.93;;;24.80;;
21402;SDS011;10862;51.886;17.078;2023-03-17T08:55:59;34.40;;;27.50;;
21402;SDS011;10862;51.886;17.078;2023-03-17T08:58:25;24.40;;;21.70;;
21402;SDS011;10862;51.886;17.078;2023-03-17T09:00:51;25.30;;;22.57;;
21402;SDS011;10862;51.886;17.078;2023-03-17T09:03:17;26.63;;;21.63;;
21402;SDS011;10862;51.886;17.078;2023-03-17T09:05:45;27.13;;;23.23;;
21402;SDS011;10862;51.886;17.078;2023-03-17T09:08:11;25.63;;;22.80;;
21402;SDS011;10862;51.886;17.078;2023-03-17T09:10:37;25.10;;;22.57;;
21402;SDS011;10862;51.886;17.078;2023-03-17T09:13:03;22.97;;;20.33;;
21402;SDS011;10862;51.886;17.078;2023-03-17T09:15:30;21.03;;;18.90;;
21402;SDS011;10862;51.886;17.078;2023-03-17T09:17:57;22.30;;;17.93;;
21402;SDS011;10862;51.886;17.078;2023-03-17T09:20:23;25.43;;;22.73;;
21402;SDS011;10862;51.886;17.078;2023-03-17T09:22:49;20.27;;;18.07;;
21402;SDS011;10862;51.886;17.078;2023-03-17T09:25:15;27.80;;;18.27;;
21402;SDS011;10862;51.886;17.078;2023-03-17T09:27:41;18.73;;;16.80;;
21402;SDS011;10862;51.886;17.078;2023-03-17T09:30:08;23.70;;;21.17;;
21402;SDS011;10862;51.886;17.078;2023-03-17T09:32:35;29.83;;;24.17;;
21402;SDS011;10862;51.886;17.078;2023-03-17T09:35:01;32.67;;;26.00;;
21402;SDS011;10862;51.886;17.078;2023-03-17T09:37:30;27.03;;;23.20;;
21402;SDS011;10862;51.886;17.078;2023-03-17T09:39:58;20.90;;;18.90;;
21402;SDS011;10862;51.886;17.078;2023-03-17T09:45:21;35.83;;;23.57;;
21402;SDS011;10862;51.886;17.078;2023-03-17T09:51:13;26.17;;;22.37;;
21402;SDS011;10862;51.886;17.078;2023-03-17T09:56:14;30.20;;;22.80;;
21402;SDS011;10862;51.886;17.078;2023-03-17T09:59:26;27.43;;;24.43;;
21402;SDS011;10862;51.886;17.078;2023-03-17T10:01:32;39.77;;;27.23;;
21402;SDS011;10862;51.886;17.078;2023-03-17T10:03:58;26.87;;;23.07;;
21402;SDS011;10862;51.886;17.078;2023-03-17T10:09:03;31.27;;;23.27;;
21402;SDS011;10862;51.886;17.078;2023-03-17T10:11:42;40.07;;;25.10;;
21402;SDS011;10862;51.886;17.078;2023-03-17T10:22:45;25.07;;;22.40;;
21402;SDS011;10862;51.886;17.078;2023-03-17T10:25:17;32.47;;;22.23;;
21402;SDS011;10862;51.886;17.078;2023-03-17T10:28:04;29.67;;;25.63;;
21402;SDS011;10862;51.886;17.078;2023-03-17T10:30:50;26.87;;;23.83;;
21402;SDS011;10862;51.886;17.078;2023-03-17T10:33:17;26.90;;;24.00;;
21402;SDS011;10862;51.886;17.078;2023-03-17T10:35:43;25.53;;;21.17;;
21402;SDS011;10862;51.886;17.078;2023-03-17T10:38:19;24.90;;;22.37;;
21402;SDS011;10862;51.886;17.078;2023-03-17T10:40:47;22.67;;;20.63;;
21402;SDS011;10862;51.886;17.078;2023-03-17T10:43:26;26.60;;;23.60;;
21402;SDS011;10862;51.886;17.078;2023-03-17T10:45:58;24.80;;;22.27;;
21402;SDS011;10862;51.886;17.078;2023-03-17T10:48:26;23.63;;;21.27;;
21402;SDS011;10862;51.886;17.078;2023-03-17T10:50:55;25.03;;;22.67;;
21402;SDS011;10862;51.886;17.078;2023-03-17T10:53:23;31.93;;;26.60;;
21402;SDS011;10862;51.886;17.078;2023-03-17T10:55:58;32.97;;;28.30;;
21402;SDS011;10862;51.886;17.078;2023-03-17T10:58:35;213.43;;;82.57;;
21402;SDS011;10862;51.886;17.078;2023-03-17T11:01:22;878.33;;;385.57;;
21402;SDS011;10862;51.886;17.078;2023-03-17T11:03:51;54.40;;;35.23;;
21402;SDS011;10862;51.886;17.078;2023-03-17T11:06:18;36.23;;;28.00;;
21402;SDS011;10862;51.886;17.078;2023-03-17T11:11:21;27.40;;;24.60;;
21402;SDS011;10862;51.886;17.078;2023-03-17T11:13:50;32.67;;;29.57;;
21402;SDS011;10862;51.886;17.078;2023-03-17T11:16:25;39.23;;;32.37;;
21402;SDS011;10862;51.886;17.078;2023-03-17T11:18:52;195.27;;;107.10;;
21402;SDS011;10862;51.886;17.078;2023-03-17T11:26:32;36.97;;;24.97;;
21402;SDS011;10862;51.886;17.078;2023-03-17T11:29:28;31.07;;;24.67;;
21402;SDS011;10862;51.886;17.078;2023-03-17T11:40:49;26.60;;;23.23;;
21402;SDS011;10862;51.886;17.078;2023-03-17T11:48:33;23.20;;;20.93;;
21402;SDS011;10862;51.886;17.078;2023-03-17T11:56:13;33.30;;;24.60;;
21402;SDS011;10862;51.886;17.078;2023-03-17T11:58:44;41.03;;;31.70;;
21402;SDS011;10862;51.886;17.078;2023-03-17T12:01:23;42.00;;;25.87;;
21402;SDS011;10862;51.886;17.078;2023-03-17T12:06:47;50.87;;;32.47;;
21402;SDS011;10862;51.886;17.078;2023-03-17T12:11:46;22.73;;;20.43;;
21402;SDS011;10862;51.886;17.078;2023-03-17T12:16:56;21.10;;;19.30;;
21402;SDS011;10862;51.886;17.078;2023-03-17T12:24:46;19.27;;;17.80;;
21402;SDS011;10862;51.886;17.078;2023-03-17T12:27:31;27.00;;;24.10;;
21402;SDS011;10862;51.886;17.078;2023-03-17T12:30:05;24.00;;;21.83;;
21402;SDS011;10862;51.886;17.078;2023-03-17T12:32:54;23.93;;;21.83;;
21402;SDS011;10862;51.886;17.078;2023-03-17T12:35:25;21.87;;;20.20;;
21402;SDS011;10862;51.886;17.078;2023-03-17T12:37:54;23.27;;;20.97;;
21402;SDS011;10862;51.886;17.078;2023-03-17T12:40:23;22.57;;;20.63;;
21402;SDS011;10862;51.886;17.078;2023-03-17T12:53:37;27.47;;;24.47;;
21402;SDS011;10862;51.886;17.078;2023-03-17T12:56:48;20.90;;;19.17;;
21402;SDS011;10862;51.886;17.078;2023-03-17T12:59:01;22.87;;;20.87;;
21402;SDS011;10862;51.886;17.078;2023-03-17T13:06:42;30.40;;;23.93;;
21402;SDS011;10862;51.886;17.078;2023-03-17T13:09:26;31.33;;;21.60;;
21402;SDS011;10862;51.886;17.078;2023-03-17T13:11:55;25.57;;;19.93;;
21402;SDS011;10862;51.886;17.078;2023-03-17T13:16:48;33.30;;;25.60;;
21402;SDS011;10862;51.886;17.078;2023-03-17T13:21:49;21.63;;;19.80;;
21402;SDS011;10862;51.886;17.078;2023-03-17T13:24:46;20.13;;;18.23;;
21402;SDS011;10862;51.886;17.078;2023-03-17T13:27:53;23.73;;;21.10;;
21402;SDS011;10862;51.886;17.078;2023-03-17T13:49:12;24.73;;;22.13;;
21402;SDS011;10862;51.886;17.078;2023-03-17T13:51:53;119.90;;;89.63;;
21402;SDS011;10862;51.886;17.078;2023-03-17T13:54:32;470.40;;;230.83;;
21402;SDS011;10862;51.886;17.078;2023-03-17T13:59:56;143.50;;;56.33;;
21402;SDS011;10862;51.886;17.078;2023-03-17T14:02:41;166.23;;;60.47;;
21402;SDS011;10862;51.886;17.078;2023-03-17T14:05:16;151.90;;;55.27;;
21402;SDS011;10862;51.886;17.078;2023-03-17T14:07:59;179.03;;;59.97;;
21402;SDS011;10862;51.886;17.078;2023-03-17T14:10:28;377.50;;;112.07;;
21402;SDS011;10862;51.886;17.078;2023-03-17T14:18:20;231.43;;;95.77;;
21402;SDS011;10862;51.886;17.078;2023-03-17T14:20:55;172.37;;;74.27;;
21402;SDS011;10862;51.886;17.078;2023-03-17T14:23:23;851.70;;;366.60;;
21402;SDS011;10862;51.886;17.078;2023-03-17T14:25:49;539.83;;;246.40;;
21402;SDS011;10862;51.886;17.078;2023-03-17T14:28:16;180.30;;;92.20;;
21402;SDS011;10862;51.886;17.078;2023-03-17T14:30:51;104.87;;;70.67;;
21402;SDS011;10862;51.886;17.078;2023-03-17T14:35:52;92.90;;;48.20;;
21402;SDS011;10862;51.886;17.078;2023-03-17T14:40:49;78.77;;;42.57;;
21402;SDS011;10862;51.886;17.078;2023-03-17T14:43:15;60.83;;;35.53;;
21402;SDS011;10862;51.886;17.078;2023-03-17T14:45:45;65.30;;;39.43;;
21402;SDS011;10862;51.886;17.078;2023-03-17T14:48:18;71.27;;;44.47;;
21402;SDS011;10862;51.886;17.078;2023-03-17T14:50:53;75.60;;;41.30;;
21402;SDS011;10862;51.886;17.078;2023-03-17T14:53:20;79.63;;;37.90;;
21402;SDS011;10862;51.886;17.078;2023-03-17T14:55:49;75.67;;;38.07;;
21402;SDS011;10862;51.886;17.078;2023-03-17T14:58:26;55.83;;;32.53;;
21402;SDS011;10862;51.886;17.078;2023-03-17T15:01:18;70.33;;;35.33;;
21402;SDS011;10862;51.886;17.078;2023-03-17T15:03:56;54.70;;;32.23;;
21402;SDS011;10862;51.886;17.078;2023-03-17T15:06:28;26.13;;;23.47;;
21402;SDS011;10862;51.886;17.078;2023-03-17T15:08:58;21.27;;;19.20;;
21402;SDS011;10862;51.886;17.078;2023-03-17T15:11:38;47.30;;;29.93;;
21402;SDS011;10862;51.886;17.078;2023-03-17T15:14:17;28.93;;;21.97;;
21402;SDS011;10862;51.886;17.078;2023-03-17T15:16:48;29.10;;;21.27;;
21402;SDS011;10862;51.886;17.078;2023-03-17T15:19:20;34.47;;;30.97;;
21402;SDS011;10862;51.886;17.078;2023-03-17T15:21:51;78.60;;;34.97;;
21402;SDS011;10862;51.886;17.078;2023-03-17T15:27:09;23.80;;;21.17;;
21402;SDS011;10862;51.886;17.078;2023-03-17T15:29:39;46.70;;;30.67;;
21402;SDS011;10862;51.886;17.078;2023-03-17T15:32:15;30.20;;;27.07;;
21402;SDS011;10862;51.886;17.078;2023-03-17T15:34:46;44.53;;;31.80;;
21402;SDS011;10862;51.886;17.078;2023-03-17T15:37:15;31.40;;;26.30;;
21402;SDS011;10862;51.886;17.078;2023-03-17T15:39:48;25.13;;;22.57;;
21402;SDS011;10862;51.886;17.078;2023-03-17T15:42:17;32.50;;;25.53;;
21402;SDS011;10862;51.886;17.078;2023-03-17T15:44:43;127.80;;;59.47;;
21402;SDS011;10862;51.886;17.078;2023-03-17T15:47:16;107.23;;;64.47;;
21402;SDS011;10862;51.886;17.078;2023-03-17T15:49:45;397.43;;;174.17;;
21402;SDS011;10862;51.886;17.078;2023-03-17T15:52:18;575.03;;;235.30;;
21402;SDS011;10862;51.886;17.078;2023-03-17T15:54:48;479.60;;;188.93;;
21402;SDS011;10862;51.886;17.078;2023-03-17T15:57:14;734.00;;;307.00;;
21402;SDS011;10862;51.886;17.078;2023-03-17T15:59:39;447.67;;;162.07;;
21402;SDS011;10862;51.886;17.078;2023-03-17T16:04:51;404.63;;;148.13;;
21402;SDS011;10862;51.886;17.078;2023-03-17T16:07:17;563.67;;;217.17;;
21402;SDS011;10862;51.886;17.078;2023-03-17T16:09:43;363.20;;;139.90;;
21402;SDS011;10862;51.886;17.078;2023-03-17T16:12:10;176.47;;;80.20;;
21402;SDS011;10862;51.886;17.078;2023-03-17T16:14:36;92.77;;;52.67;;
21402;SDS011;10862;51.886;17.078;2023-03-17T16:17:02;84.20;;;43.47;;
21402;SDS011;10862;51.886;17.078;2023-03-17T16:19:28;238.23;;;90.33;;